^^
Grace C. Lehan Memorial Weather Station Historical Data
Daily Summary for January 8, 2021 Units:  English    Metric   Both
Daily Weekly Monthly Yearly
  High: Low: Average:
Temperature: 43.9 °F 24.1 °F 31.6 °F
Dew Point: 27.7 °F 17.6 °F 22 °F
Humidity: 89% 47% 69%
Wind Speed: 8.5mph 0mph 1.2mph
Wind Gust: 16mph - -
Wind- - WNW
Pressure: 30.04 in 29.84 in -
Precipitation: 0.00 in    
 
 
Tabular Data for January 8, 2021
Time Temperature Dew Point Pressure Wind Wind Speed Wind Gust Humidity Rainfall Rate (Hourly) solar
00:04 28 °F 22.7 °F 30.03 in Calm     80% 0.00 in 0 W/m2
00:09 27.9 °F 22.6 °F 30.03 in Calm     80.2% 0.00 in 0 W/m2
00:14 27.8 °F 22.8 °F 30.03 in Calm     81% 0.00 in 0 W/m2
00:19 27.8 °F 22.7 °F 30.03 in Calm     81% 0.00 in 0 W/m2
00:24 27.7 °F 22.7 °F 30.02 in Calm     81% 0.00 in 0 W/m2
00:29 27.7 °F 22.6 °F 30.02 in Calm     81% 0.00 in 0 W/m2
00:34 27.6 °F 22.7 °F 30.03 in Calm     81.4% 0.00 in 0 W/m2
00:39 27.6 °F 22.8 °F 30.02 in Calm     82% 0.00 in 0 W/m2
00:44 27.6 °F 22.8 °F 30.02 in Calm     82% 0.00 in 0 W/m2
00:49 27.5 °F 22.7 °F 30.02 in Calm     82% 0.00 in 0 W/m2
00:54 27.4 °F 22.6 °F 30.02 in Calm     82% 0.00 in 0 W/m2
00:59 27.3 °F 22.6 °F 30.02 in Calm     82% 0.00 in 0 W/m2
01:04 27.2 °F 22.5 °F 30.02 in Calm     82% 0.00 in 0 W/m2
01:09 27.2 °F 22.4 °F 30.02 in Calm     82% 0.00 in 0 W/m2
01:14 27.1 °F 22.4 °F 30.02 in Calm     82% 0.00 in 0 W/m2
01:19 27.1 °F 22.6 °F 30.02 in Calm     83% 0.00 in 0 W/m2
01:24 27.1 °F 22.6 °F 30.02 in Calm     83% 0.00 in 0 W/m2
01:29 27 °F 22.5 °F 30.02 in Calm     83% 0.00 in 0 W/m2
01:34 27 °F 22.5 °F 30.02 in Calm     83% 0.00 in 0 W/m2
01:39 26.9 °F 22.4 °F 30.02 in Calm     83% 0.00 in 0 W/m2
01:44 26.8 °F 22.4 °F 30.02 in Calm     83% 0.00 in 0 W/m2
01:49 26.7 °F 22.2 °F 30.02 in Calm     83% 0.00 in 0 W/m2
01:54 26.6 °F 22.2 °F 30.02 in Calm     83% 0.00 in 0 W/m2
01:59 26.6 °F 22.2 °F 30.03 in Calm     83.2% 0.00 in 0 W/m2
02:04 26.5 °F 22.2 °F 30.03 in Calm     83.4% 0.00 in 0 W/m2
02:09 26.5 °F 22.3 °F 30.03 in Calm     84% 0.00 in 0 W/m2
02:14 26.5 °F 22.3 °F 30.04 in Calm     84% 0.00 in 0 W/m2
02:19 26.5 °F 22.3 °F 30.04 in Calm     84% 0.00 in 0 W/m2
02:24 26.4 °F 22.2 °F 30.04 in Calm     84% 0.00 in 0 W/m2
02:29 26.4 °F 22.2 °F 30.04 in Calm     84% 0.00 in 0 W/m2
02:34 26.4 °F 22.2 °F 30.04 in Calm     84% 0.00 in 0 W/m2
02:39 26.3 °F 22.1 °F 30.03 in NNW 0.1 mph 2 mph 84% 0.00 in 0 W/m2
02:44 26.3 °F 22.1 °F 30.03 in Calm   2 mph 84% 0.00 in 0 W/m2
02:49 26.3 °F 22.4 °F 30.03 in Calm   2 mph 84.9% 0.00 in 0 W/m2
02:54 26.4 °F 22.5 °F 30.03 in NNW 0.1 mph 3 mph 84.8% 0.00 in 0 W/m2
02:59 26.5 °F 22.3 °F 30.03 in NNW 0.1 mph 3 mph 84% 0.00 in 0 W/m2
03:04 26.6 °F 22.4 °F 30.03 in Calm   3 mph 84% 0.00 in 0 W/m2
03:09 26.7 °F 22.5 °F 30.03 in Calm     84% 0.00 in 0 W/m2
03:14 26.7 °F 22.5 °F 30.02 in NNW 0.1 mph 1 mph 84% 0.00 in 0 W/m2
03:19 26.7 °F 22.6 °F 30.02 in NNW 0.1 mph 2 mph 84% 0.00 in 0 W/m2
03:24 26.8 °F 22.4 °F 30.02 in Calm   2 mph 83.3% 0.00 in 0 W/m2
03:29 26.8 °F 22.3 °F 30.02 in Calm   2 mph 83% 0.00 in 0 W/m2
03:34 26.8 °F 22.3 °F 30.02 in Calm   2 mph 83% 0.00 in 0 W/m2
03:39 26.7 °F 22.2 °F 30.02 in NNW 0.1 mph 3 mph 83% 0.00 in 0 W/m2
03:44 26.6 °F 22.2 °F 30.02 in Calm   3 mph 83% 0.00 in 0 W/m2
03:49 26.6 °F 22.1 °F 30.02 in Calm   3 mph 83% 0.00 in 0 W/m2
03:54 26.5 °F 22 °F 30.01 in Calm   3 mph 83% 0.00 in 0 W/m2
03:59 26.4 °F 22 °F 30.01 in Calm   3 mph 83% 0.00 in 0 W/m2
04:04 26.4 °F 22.2 °F 30.01 in Calm   3 mph 83.8% 0.00 in 0 W/m2
04:09 26.3 °F 22.2 °F 30.01 in Calm     84% 0.00 in 0 W/m2
04:14 26.3 °F 22.1 °F 30.01 in Calm     84% 0.00 in 0 W/m2
04:19 26.3 °F 22.1 °F 30.00 in Calm     84% 0.00 in 0 W/m2
04:24 26.3 °F 22.1 °F 30.00 in Calm     84% 0.00 in 0 W/m2
04:29 26.3 °F 22.2 °F 30.00 in Calm     84% 0.00 in 0 W/m2
04:34 26.4 °F 22.2 °F 30.00 in Calm     84% 0.00 in 0 W/m2
04:39 26.3 °F 22.2 °F 29.99 in Calm     84% 0.00 in 0 W/m2
04:44 26.3 °F 22.1 °F 29.99 in Calm     84% 0.00 in 0 W/m2
04:49 26.3 °F 22.1 °F 29.99 in Calm     84% 0.00 in 0 W/m2
04:54 26.2 °F 22 °F 29.99 in Calm     84% 0.00 in 0 W/m2
04:59 26.1 °F 22 °F 29.99 in Calm     84% 0.00 in 0 W/m2
05:04 26.1 °F 21.9 °F 30.00 in Calm     84% 0.00 in 0 W/m2
05:09 26 °F 21.8 °F 29.99 in NNW 0.1 mph 2 mph 84% 0.00 in 0 W/m2
05:14 25.9 °F 21.7 °F 29.99 in Calm   2 mph 84% 0.00 in 0 W/m2
05:19 25.8 °F 21.6 °F 30.00 in Calm   2 mph 84% 0.00 in 0 W/m2
05:24 25.7 °F 21.6 °F 30.00 in Calm   2 mph 84% 0.00 in 0 W/m2
05:29 25.6 °F 21.5 °F 30.00 in Calm   2 mph 84% 0.00 in 0 W/m2
05:34 25.4 °F 21.5 °F 30.00 in Calm   2 mph 84.9% 0.00 in 0 W/m2
05:39 25.2 °F 21.4 °F 30.00 in Calm     85% 0.00 in 0 W/m2
05:44 25.1 °F 21.2 °F 30.00 in Calm     85% 0.00 in 0 W/m2
05:49 25 °F 21.1 °F 29.99 in Calm   1 mph 85% 0.00 in 0 W/m2
05:54 25 °F 21.4 °F 29.99 in Calm   2 mph 85.8% 0.00 in 0 W/m2
05:59 25.1 °F 21.5 °F 29.99 in Calm   2 mph 86% 0.00 in 0 W/m2
06:04 25.1 °F 21.5 °F 29.99 in Calm   2 mph 86% 0.00 in 0 W/m2
06:09 25.1 °F 21.5 °F 29.99 in Calm     86% 0.00 in 0 W/m2
06:14 25 °F 21.4 °F 29.99 in Calm     86% 0.00 in 0 W/m2
06:19 25 °F 21.4 °F 29.99 in Calm     86% 0.00 in 0 W/m2
06:24 25 °F 21.4 °F 29.99 in Calm     86% 0.00 in 0 W/m2
06:29 24.9 °F 21.3 °F 29.99 in Calm     86% 0.00 in 0 W/m2
06:34 24.9 °F 21.4 °F 30.00 in Calm     86% 0.00 in 0 W/m2
06:39 24.9 °F 21.3 °F 30.00 in NNW 0.1 mph 2 mph 86% 0.00 in 0 W/m2
06:44 24.7 °F 20.9 °F 30.00 in Calm   2 mph 85.3% 0.00 in 0 W/m2
06:49 24.5 °F 20.8 °F 30.00 in Calm   2 mph 85.6% 0.00 in 0 W/m2
06:54 24.4 °F 20.8 °F 30.00 in Calm   2 mph 86% 0.00 in 0 W/m2
06:59 24.4 °F 21 °F 30.00 in Calm   2 mph 86.8% 0.00 in 0 W/m2
07:04 24.4 °F 21.1 °F 30.00 in Calm   2 mph 87% 0.00 in 0 W/m2
07:09 24.4 °F 21.1 °F 29.99 in Calm     87% 0.00 in 0 W/m2
07:14 24.3 °F 21 °F 29.99 in Calm     87% 0.00 in 0 W/m2
07:19 24.3 °F 21 °F 29.99 in Calm     87% 0.00 in 0 W/m2
07:24 24.2 °F 20.9 °F 29.99 in Calm     87% 0.00 in 5 W/m2
07:29 24.2 °F 20.9 °F 29.99 in Calm     87% 0.00 in 7 W/m2
07:34 24.1 °F 20.8 °F 29.99 in NNW 0.2 mph 1 mph 87% 0.00 in 11 W/m2
07:39 24.1 °F 20.8 °F 29.99 in Calm   1 mph 87% 0.00 in 12 W/m2
07:44 24.2 °F 20.9 °F 29.99 in NNW 0.3 mph 3 mph 87.1% 0.00 in 18 W/m2
07:49 24.3 °F 21.1 °F 29.99 in Calm   3 mph 87.4% 0.00 in 33 W/m2
07:54 24.5 °F 21.5 °F 29.99 in Calm   3 mph 87.9% 0.00 in 51 W/m2
07:59 25 °F 22 °F 30.00 in Calm   3 mph 88.3% 0.00 in 63 W/m2
08:00 25.4 °F 22.6 °F 30.00 in Calm   3 mph 89% 0.00 in 49 W/m2
08:09 26.7 °F 23.8 °F 30.00 in Calm     88.7% 0.00 in 97 W/m2
08:14 27.5 °F 24.3 °F 30.00 in Calm     87.2% 0.00 in 116 W/m2
08:19 28.4 °F 24.4 °F 30.00 in Calm     84.8% 0.00 in 121 W/m2
08:24 29 °F 24.6 °F 30.00 in Calm     83.2% 0.00 in 121 W/m2
08:29 29.6 °F 24.8 °F 30.00 in Calm     81.8% 0.00 in 123 W/m2
08:34 30.1 °F 24.7 °F 30.00 in Calm   1 mph 79.9% 0.00 in 62 W/m2
08:39 30.3 °F 24.3 °F 29.99 in NE 0.4 mph 3 mph 78.1% 0.00 in 116 W/m2
08:44 30.5 °F 24.2 °F 29.99 in NE 1 mph 4 mph 77.3% 0.00 in 116 W/m2
08:49 30.7 °F 24.3 °F 29.99 in NNE 0.5 mph 4 mph 77% 0.00 in 127 W/m2
08:54 31 °F 24.6 °F 29.99 in NNE 0.1 mph 4 mph 77% 0.00 in 123 W/m2
08:59 31.3 °F 24.8 °F 29.99 in NNE 0.5 mph 4 mph 76.4% 0.00 in 97 W/m2
09:04 31.4 °F 24.4 °F 29.99 in NNE 0.1 mph 4 mph 75% 0.00 in 134 W/m2
09:09 31.4 °F 24.4 °F 29.99 in NNW 1.3 mph 6 mph 75% 0.00 in 151 W/m2
09:14 31.5 °F 24.5 °F 29.99 in NNW 0.8 mph 6 mph 74.8% 0.00 in 142 W/m2
09:19 31.8 °F 24.4 °F 29.99 in NNW 0.5 mph 6 mph 74% 0.00 in 162 W/m2
09:24 31.9 °F 24.4 °F 29.99 in Calm   6 mph 73.5% 0.00 in 162 W/m2
09:29 31.9 °F 24.4 °F 29.99 in North 0.6 mph 6 mph 73.6% 0.00 in 90 W/m2
09:34 32 °F 24.3 °F 29.99 in North 0.3 mph 6 mph 73% 0.00 in 156 W/m2
09:39 32.2 °F 24.5 °F 29.98 in North 0.8 mph 4 mph 73% 0.00 in 181 W/m2
09:44 32.5 °F 24.6 °F 29.98 in North 0.3 mph 4 mph 72.5% 0.00 in 120 W/m2
09:49 32.7 °F 24.5 °F 29.98 in NNW 1.9 mph 6 mph 71.5% 0.00 in 97 W/m2
09:54 32.9 °F 24.5 °F 29.98 in NNW 1.5 mph 6 mph 71% 0.00 in 116 W/m2
09:59 33 °F 24.5 °F 29.98 in NNW 0.9 mph 6 mph 70.6% 0.00 in 63 W/m2
10:04 33.2 °F 24.6 °F 29.98 in North 2.2 mph 6 mph 70.3% 0.00 in 81 W/m2
10:09 33.3 °F 24.4 °F 29.98 in North 0.9 mph 6 mph 69.5% 0.00 in 141 W/m2
10:14 33.4 °F 24.3 °F 29.98 in NNW 0.7 mph 6 mph 69% 0.00 in 144 W/m2
10:19 33.6 °F 24.7 °F 29.98 in NNW 2.1 mph 6 mph 69.4% 0.00 in 283 W/m2
10:24 34.1 °F 24.9 °F 29.98 in NNW 0.3 mph 6 mph 68.6% 0.00 in 283 W/m2
10:29 34.7 °F 25.2 °F 29.98 in WNW 1 mph 6 mph 67.9% 0.00 in 345 W/m2
10:34 35.3 °F 25.1 °F 29.97 in WNW 0.9 mph 6 mph 66.2% 0.00 in 246 W/m2
10:39 35.8 °F 25.3 °F 29.96 in WNW 1.1 mph 4 mph 65.2% 0.00 in 369 W/m2
10:44 36.3 °F 25.5 °F 29.96 in NW 0.1 mph 4 mph 64.7% 0.00 in 373 W/m2
10:49 36.8 °F 25.7 °F 29.96 in WNW 1.8 mph 5 mph 64% 0.00 in 452 W/m2
10:54 37.3 °F 25.8 °F 29.95 in NW 0.8 mph 5 mph 63% 0.00 in 469 W/m2
10:59 37.8 °F 26.4 °F 29.95 in NW 1.5 mph 5 mph 63.2% 0.00 in 439 W/m2
11:04 38.3 °F 26.8 °F 29.94 in NW 0.9 mph 5 mph 63% 0.00 in 424 W/m2
11:09 39.1 °F 27.7 °F 29.94 in NW 0.8 mph 4 mph 63.2% 0.00 in 229 W/m2
11:14 40 °F 27.2 °F 29.94 in NW 0.1 mph 4 mph 59.9% 0.00 in 348 W/m2
11:19 40.2 °F 26.9 °F 29.94 in WNW 0.5 mph 6 mph 58.7% 0.00 in 348 W/m2
11:24 40 °F 26.2 °F 29.94 in West 0.9 mph 6 mph 57.3% 0.00 in 134 W/m2
11:29 39.6 °F 25.6 °F 29.94 in Calm   6 mph 56.9% 0.00 in 225 W/m2
11:34 39.2 °F 25.5 °F 29.94 in West 0.5 mph 6 mph 57.6% 0.00 in 225 W/m2
11:39 38.8 °F 25.2 °F 29.93 in West 0.9 mph 4 mph 57.7% 0.00 in 151 W/m2
11:44 38.7 °F 24.9 °F 29.92 in WNW 1.5 mph 5 mph 57.3% 0.00 in 176 W/m2
11:49 38.7 °F 25.1 °F 29.91 in WNW 1.8 mph 9 mph 57.8% 0.00 in 188 W/m2
11:54 38.9 °F 25.3 °F 29.91 in WNW 2.7 mph 11 mph 57.7% 0.00 in 207 W/m2
11:59 39.3 °F 25.1 °F 29.91 in NNW 1.7 mph 11 mph 56.4% 0.00 in 185 W/m2
12:00 39.5 °F 25.5 °F 29.90 in Calm   11 mph 57% 0.00 in 120 W/m2
12:09 40.3 °F 25 °F 29.91 in NW 2 mph 9 mph 54% 0.00 in 274 W/m2
12:14 40.5 °F 24.8 °F 29.90 in NNW 3.6 mph 9 mph 53.2% 0.00 in 229 W/m2
12:19 40.6 °F 24.7 °F 29.90 in NW 2.5 mph 9 mph 52.7% 0.00 in 606 W/m2
12:24 40.8 °F 25.1 °F 29.90 in WNW 2.1 mph 9 mph 53.2% 0.00 in 610 W/m2
12:29 41.2 °F 25.6 °F 29.89 in NW 2.5 mph 9 mph 53.5% 0.00 in 564 W/m2
12:34 41.7 °F 25.3 °F 29.89 in NW 3.9 mph 9 mph 51.8% 0.00 in 367 W/m2
12:39 41.9 °F 25 °F 29.89 in WNW 1.5 mph 11 mph 50.7% 0.00 in 185 W/m2
12:44 42.1 °F 25.5 °F 29.89 in NW 4.2 mph 11 mph 51.3% 0.00 in 531 W/m2
12:49 42.2 °F 24.9 °F 29.89 in WNW 6.7 mph 15 mph 49.9% 0.00 in 473 W/m2
12:54 42.3 °F 24.9 °F 29.89 in WNW 3.2 mph 15 mph 49.9% 0.00 in 510 W/m2
12:59 42.5 °F 24.9 °F 29.89 in WNW 5.8 mph 15 mph 49.4% 0.00 in 369 W/m2
13:04 42.7 °F 25 °F 29.89 in WNW 3.1 mph 15 mph 49.2% 0.00 in 116 W/m2
13:09 42.9 °F 25 °F 29.89 in WNW 3.1 mph 11 mph 48.8% 0.00 in 116 W/m2
13:14 43 °F 25.1 °F 29.89 in WSW 0.9 mph 11 mph 48.8% 0.00 in 232 W/m2
13:19 43.1 °F 25.3 °F 29.89 in WSW 2.1 mph 11 mph 49% 0.00 in 192 W/m2
13:24 43.5 °F 25.5 °F 29.89 in WSW 1.7 mph 11 mph 48.9% 0.00 in 462 W/m2
13:29 43.8 °F 25.7 °F 29.89 in WNW 2.5 mph 11 mph 48.6% 0.00 in 417 W/m2
13:34 43.9 °F 25.6 °F 29.89 in West 3.5 mph 11 mph 48.2% 0.00 in 441 W/m2
13:39 43.9 °F 25.3 °F 29.89 in WNW 4.3 mph 14 mph 47.7% 0.00 in 371 W/m2
13:44 43.3 °F 24.4 °F 29.89 in WNW 5.4 mph 14 mph 47% 0.00 in 306 W/m2
13:49 42.6 °F 24.4 °F 29.89 in WNW 4.4 mph 14 mph 48.2% 0.00 in 306 W/m2
13:54 42.2 °F 24.2 °F 29.88 in WNW 3.4 mph 14 mph 48.6% 0.00 in 98 W/m2
13:59 41.9 °F 24.1 °F 29.88 in WNW 3.3 mph 14 mph 49% 0.00 in 172 W/m2
14:04 41.6 °F 24.4 °F 29.88 in WNW 2.5 mph 14 mph 50.2% 0.00 in 144 W/m2
14:09 41.5 °F 24.7 °F 29.88 in WNW 3.9 mph 14 mph 51% 0.00 in 211 W/m2
14:14 41.4 °F 24.2 °F 29.88 in NW 4.9 mph 14 mph 50% 0.00 in 243 W/m2
14:19 41.4 °F 24.2 °F 29.89 in WNW 4.4 mph 14 mph 50% 0.00 in 155 W/m2
14:24 41.4 °F 24.1 °F 29.89 in WNW 5.7 mph 14 mph 50% 0.00 in 179 W/m2
14:29 41.3 °F 24.1 °F 29.89 in WNW 5.9 mph 14 mph 50% 0.00 in 151 W/m2
14:34 41.1 °F 23.9 °F 29.89 in WNW 4.7 mph 14 mph 50% 0.00 in 111 W/m2
14:39 41 °F 23.8 °F 29.88 in WNW 6.2 mph 13 mph 50% 0.00 in 97 W/m2
14:44 40.7 °F 23.6 °F 29.89 in WNW 5.6 mph 13 mph 50% 0.00 in 25 W/m2
14:49 40.3 °F 23.7 °F 29.88 in WNW 4.2 mph 13 mph 51.2% 0.00 in 28 W/m2
14:54 39.8 °F 23.7 °F 29.88 in WNW 4.4 mph 14 mph 52.2% 0.00 in 26 W/m2
14:59 39.3 °F 23.6 °F 29.87 in WNW 8.5 mph 14 mph 52.8% 0.00 in 26 W/m2
15:04 38.9 °F 23.3 °F 29.87 in WNW 7.4 mph 16 mph 53.1% 0.00 in 28 W/m2
15:09 38.6 °F 23.3 °F 29.86 in WNW 5.4 mph 16 mph 53.8% 0.00 in 28 W/m2
15:14 38.3 °F 23.1 °F 29.87 in NW 4 mph 16 mph 54% 0.00 in 25 W/m2
15:19 38.1 °F 23 °F 29.87 in WNW 4.2 mph 16 mph 54.2% 0.00 in 23 W/m2
15:24 37.9 °F 23.2 °F 29.86 in WNW 5.3 mph 16 mph 55% 0.00 in 26 W/m2
15:29 37.6 °F 23.1 °F 29.86 in WNW 5.7 mph 16 mph 55.4% 0.00 in 26 W/m2
15:34 37.4 °F 23.2 °F 29.86 in WNW 3.3 mph 16 mph 56% 0.00 in 26 W/m2
15:39 37.2 °F 23 °F 29.87 in WNW 3.5 mph 10 mph 56% 0.00 in 23 W/m2
15:44 37 °F 22.9 °F 29.87 in NW 3.7 mph 10 mph 56.2% 0.00 in 19 W/m2
15:49 36.7 °F 22.9 °F 29.86 in WNW 3 mph 10 mph 57% 0.00 in 18 W/m2
15:54 36.5 °F 22.7 °F 29.86 in WNW 3.5 mph 10 mph 57% 0.00 in 18 W/m2
15:59 36.3 °F 22.8 °F 29.86 in WNW 3.6 mph 10 mph 57.7% 0.00 in 18 W/m2
16:00 36.2 °F 22.9 °F 29.86 in West 1 mph 10 mph 58% 0.00 in 14 W/m2
16:09 35.9 °F 22.8 °F 29.86 in WNW 2.6 mph 10 mph 58.5% 0.00 in 11 W/m2
16:14 35.7 °F 22.8 °F 29.86 in WNW 2.5 mph 10 mph 59% 0.00 in 9 W/m2
16:19 35.5 °F 22.6 °F 29.86 in Calm   10 mph 59% 0.00 in 9 W/m2
16:24 35.3 °F 22.6 °F 29.86 in WNW 0.6 mph 10 mph 59.4% 0.00 in 7 W/m2
16:29 35.2 °F 22.7 °F 29.86 in WNW 0.6 mph 10 mph 60% 0.00 in 5 W/m2
16:34 35 °F 22.5 °F 29.86 in WNW 0.2 mph 10 mph 60% 0.00 in 0 W/m2
16:39 34.7 °F 22.5 °F 29.86 in West 0.6 mph 6 mph 60.6% 0.00 in 0 W/m2
16:44 34.5 °F 22.5 °F 29.86 in Calm   6 mph 61% 0.00 in 0 W/m2
16:49 34.3 °F 22.3 °F 29.86 in West 0.5 mph 6 mph 61% 0.00 in 0 W/m2
16:54 34.1 °F 22.3 °F 29.86 in West 0.3 mph 6 mph 61.7% 0.00 in 0 W/m2
16:59 33.9 °F 21.9 °F 29.86 in Calm   6 mph 61% 0.00 in 0 W/m2
17:04 33.7 °F 22.1 °F 29.86 in Calm   6 mph 62% 0.00 in 0 W/m2
17:09 33.5 °F 21.9 °F 29.86 in Calm   1 mph 62% 0.00 in 0 W/m2
17:14 33.3 °F 21.7 °F 29.86 in Calm   1 mph 62% 0.00 in 0 W/m2
17:19 33.2 °F 21.6 °F 29.86 in Calm   1 mph 62% 0.00 in 0 W/m2
17:24 33 °F 21.4 °F 29.86 in Calm   2 mph 62% 0.00 in 0 W/m2
17:29 32.8 °F 21.3 °F 29.86 in WNW 0.5 mph 5 mph 62% 0.00 in 0 W/m2
17:34 32.7 °F 21.2 °F 29.86 in WNW 2.1 mph 8 mph 62% 0.00 in 0 W/m2
17:39 32.6 °F 21.1 °F 29.86 in WNW 1.7 mph 8 mph 62% 0.00 in 0 W/m2
17:44 32.6 °F 21 °F 29.86 in WNW 0.4 mph 8 mph 62% 0.00 in 0 W/m2
17:49 32.6 °F 20.8 °F 29.86 in WNW 0.2 mph 8 mph 61.4% 0.00 in 0 W/m2
17:54 32.5 °F 20.6 °F 29.86 in WNW 0.2 mph 8 mph 61% 0.00 in 0 W/m2
17:59 32.5 °F 20.3 °F 29.87 in Calm   8 mph 60.4% 0.00 in 0 W/m2
18:04 32.5 °F 20.1 °F 29.87 in WNW 0.1 mph 8 mph 60% 0.00 in 0 W/m2
18:09 32.4 °F 20.1 °F 29.87 in WNW 1 mph 5 mph 60% 0.00 in 0 W/m2
18:14 32.4 °F 19.8 °F 29.87 in NW 1 mph 5 mph 59.3% 0.00 in 0 W/m2
18:19 32.4 °F 19.5 °F 29.86 in NW 2.4 mph 10 mph 58.6% 0.00 in 0 W/m2
18:24 32.5 °F 19.3 °F 29.86 in NW 3 mph 10 mph 57.9% 0.00 in 0 W/m2
18:29 32.7 °F 18.8 °F 29.87 in NW 4.6 mph 12 mph 56.2% 0.00 in 0 W/m2
18:34 32.9 °F 18.6 °F 29.87 in NW 3.6 mph 12 mph 55.2% 0.00 in 0 W/m2
18:39 33 °F 18.6 °F 29.87 in NW 4 mph 12 mph 55% 0.00 in 0 W/m2
18:44 33.1 °F 18.5 °F 29.87 in NW 2.8 mph 12 mph 54.5% 0.00 in 0 W/m2
18:49 33 °F 18.4 °F 29.87 in NW 4 mph 16 mph 54.4% 0.00 in 0 W/m2
18:54 33 °F 18.1 °F 29.87 in WNW 1.7 mph 16 mph 53.9% 0.00 in 0 W/m2
18:59 33 °F 18 °F 29.87 in NW 2.3 mph 16 mph 53.5% 0.00 in 0 W/m2
19:04 33 °F 18 °F 29.87 in NW 1.4 mph 16 mph 53.7% 0.00 in 0 W/m2
19:09 32.9 °F 17.8 °F 29.88 in NW 1.1 mph 6 mph 53.4% 0.00 in 0 W/m2
19:14 32.8 °F 17.8 °F 29.88 in NW 0.9 mph 6 mph 53.6% 0.00 in 0 W/m2
19:19 32.6 °F 17.8 °F 29.88 in NW 1 mph 6 mph 54% 0.00 in 0 W/m2
19:24 32.5 °F 17.8 °F 29.88 in WNW 1.9 mph 6 mph 54.2% 0.00 in 0 W/m2
19:29 32.3 °F 17.9 °F 29.88 in WNW 2.1 mph 6 mph 55% 0.00 in 0 W/m2
19:34 32.1 °F 17.8 °F 29.88 in WNW 3.6 mph 9 mph 55% 0.00 in 0 W/m2
19:39 32 °F 17.6 °F 29.88 in NW 2.1 mph 9 mph 55% 0.00 in 0 W/m2
19:44 31.8 °F 17.9 °F 29.87 in WNW 1.9 mph 9 mph 55.9% 0.00 in 0 W/m2
19:49 31.7 °F 17.8 °F 29.88 in WNW 1.3 mph 9 mph 56% 0.00 in 0 W/m2
19:54 31.6 °F 18 °F 29.87 in WNW 3.1 mph 9 mph 56.7% 0.00 in 0 W/m2
19:59 31.4 °F 17.9 °F 29.87 in WNW 2.5 mph 9 mph 57% 0.00 in 0 W/m2
20:04 31.2 °F 17.8 °F 29.87 in NW 2 mph 2 mph 57% 0.00 in 0 W/m2
20:09 31.2 °F 17.9 °F 29.87 in NW 2.2 mph 9 mph 57.3% 0.00 in 0 W/m2
20:14 31.1 °F 18 °F 29.87 in NW 4.8 mph 12 mph 58% 0.00 in 0 W/m2
20:19 30.9 °F 18.1 °F 29.87 in WNW 3 mph 12 mph 58.6% 0.00 in 0 W/m2
20:24 30.8 °F 18.2 °F 29.87 in WNW 3.9 mph 12 mph 59% 0.00 in 0 W/m2
20:29 30.6 °F 18.1 °F 29.87 in NW 2.5 mph 12 mph 59.2% 0.00 in 0 W/m2
20:34 30.6 °F 18.4 °F 29.86 in NW 3.9 mph 12 mph 60% 0.00 in 0 W/m2
20:39 30.5 °F 18.3 °F 29.86 in NW 3.1 mph 11 mph 60% 0.00 in 0 W/m2
20:44 30.5 °F 18.3 °F 29.86 in NW 2.9 mph 11 mph 60% 0.00 in 0 W/m2
20:49 30.5 °F 18.2 °F 29.86 in WNW 2.1 mph 11 mph 60% 0.00 in 0 W/m2
20:54 30.4 °F 18.2 °F 29.86 in NW 0.4 mph 11 mph 60% 0.00 in 0 W/m2
20:59 30.4 °F 18.2 °F 29.86 in NW 0.7 mph 11 mph 60% 0.00 in 0 W/m2
21:04 30.3 °F 18.3 °F 29.86 in NW 0.5 mph 11 mph 60.5% 0.00 in 0 W/m2
21:09 30.2 °F 18.3 °F 29.86 in NW 0.2 mph 5 mph 60.9% 0.00 in 0 W/m2
21:14 30.1 °F 18.3 °F 29.86 in NW 0.3 mph 5 mph 61% 0.00 in 0 W/m2
21:19 30.1 °F 18.3 °F 29.86 in NW 0.3 mph 5 mph 61% 0.00 in 0 W/m2
21:24 30 °F 18.3 °F 29.86 in NW 1.1 mph 5 mph 61.2% 0.00 in 0 W/m2
21:29 30 °F 18.6 °F 29.86 in NW 0.4 mph 6 mph 62% 0.00 in 0 W/m2
21:34 29.9 °F 18.5 °F 29.86 in NW 0.2 mph 6 mph 62% 0.00 in 0 W/m2
21:39 29.9 °F 18.4 °F 29.86 in NW 0.2 mph 3 mph 62% 0.00 in 0 W/m2
21:44 29.8 °F 18.6 °F 29.86 in NW 0.3 mph 3 mph 62.7% 0.00 in 0 W/m2
21:49 29.7 °F 19.3 °F 29.85 in NW 0.6 mph 6 mph 64.7% 0.00 in 0 W/m2
21:54 29.8 °F 20.7 °F 29.85 in NW 1.1 mph 6 mph 68.6% 0.00 in 0 W/m2
21:59 29.9 °F 21 °F 29.85 in NW 0.5 mph 6 mph 69.2% 0.00 in 0 W/m2
22:04 30 °F 21.3 °F 29.85 in NW 0.2 mph 6 mph 69.8% 0.00 in 0 W/m2
22:09 30.1 °F 21.9 °F 29.85 in Calm   3 mph 71.2% 0.00 in 0 W/m2
22:14 30.2 °F 22.2 °F 29.85 in NW 0.1 mph 3 mph 71.7% 0.00 in 0 W/m2
22:19 30.2 °F 21.8 °F 29.85 in Calm   3 mph 70.5% 0.00 in 0 W/m2
22:24 30.2 °F 21.4 °F 29.85 in Calm   3 mph 69.3% 0.00 in 0 W/m2
22:29 30.2 °F 20.6 °F 29.85 in Calm   3 mph 67.1% 0.00 in 0 W/m2
22:34 30.1 °F 19.9 °F 29.85 in Calm   3 mph 65.4% 0.00 in 0 W/m2
22:39 30 °F 19.7 °F 29.85 in Calm     65% 0.00 in 0 W/m2
22:44 29.9 °F 19.3 °F 29.85 in Calm     64.2% 0.00 in 0 W/m2
22:49 29.8 °F 19.4 °F 29.84 in Calm     65% 0.00 in 0 W/m2
22:54 29.7 °F 19.4 °F 29.84 in Calm     65% 0.00 in 0 W/m2
22:59 29.7 °F 19.3 °F 29.84 in Calm     65% 0.00 in 0 W/m2
23:00 29.6 °F 19.3 °F 29.84 in Calm     65% 0.00 in 0 W/m2
23:09 29.4 °F 18.8 °F 29.84 in Calm     64% 0.00 in 0 W/m2
23:14 29.2 °F 18.6 °F 29.84 in Calm     64% 0.00 in 0 W/m2
23:19 29.1 °F 18.4 °F 29.84 in Calm     64% 0.00 in 0 W/m2
23:24 28.9 °F 18.2 °F 29.84 in Calm     64% 0.00 in 0 W/m2
23:29 28.7 °F 18.1 °F 29.84 in Calm     64% 0.00 in 0 W/m2
23:34 28.5 °F 18.2 °F 29.84 in Calm     64.9% 0.00 in 0 W/m2
23:39 28.3 °F 18 °F 29.84 in Calm     65% 0.00 in 0 W/m2
23:44 28.1 °F 18.2 °F 29.84 in Calm     65.9% 0.00 in 0 W/m2
23:49 27.9 °F 18 °F 29.84 in Calm     65.9% 0.00 in 0 W/m2
23:54 27.8 °F 18 °F 29.84 in Calm     66% 0.00 in 0 W/m2
23:59 27.7 °F 17.9 °F 29.84 in NW 0.1 mph 2 mph 66% 0.00 in 0 W/m2
Hartford County Weather
Compliments of Weather Underground - 4 mb